Auburn, KS (66402)

9:27 AM CDT on March 29, 2017 (GMT -0500)
South Pointe Bay Estates | | Change Station

Elev 1096 ft 38.95 °N, 95.80 °W | Updated 9 minutes ago

Rain
Rain
49.7 °F
Feels Like 48 °F
N
5.0
Wind Variable Wind from NE
Gusts 20.0 mph

Today
High -- | Low -- °F
--% Chance of Precip.
Yesterday
High -- | Low -- °F
Precip. -- in
Pressure 29.76 in
Visibility 1.8 miles
Clouds Overcast 700 ft
Windchill 48 °F
Dew Point 48 °F
Humidity 94%
Rainfall 0.00 in
Snow Depth Not available.
7:12 AM 7:44 PM
Waxing Crescent, 3% visible
SPECI KFOE 291420Z 08011G24KT 1 3/4SM VCTS RA BR OVC007 10/09 A2976 RMK AO2 LTG DSNT SE AND S CIG 005V009 P0008 T01000094
Pressure 29.76 in
Visibility 1.8 miles
Clouds Overcast 700 ft
Windchill 48 °F
Dew Point 48 °F
Humidity 94%
Rainfall 0.00 in
Snow Depth Not available.
7:12 AM 7:44 PM
Waxing Crescent, 3% visible
SPECI KFOE 291420Z 08011G24KT 1 3/4SM VCTS RA BR OVC007 10/09 A2976 RMK AO2 LTG DSNT SE AND S CIG 005V009 P0008 T01000094

Get Severe Weather Alerts

Thanks for signing up!

Be on the lookout for a verification email in your inbox.

You'll start receiving the daily forecast at 8 AM.

×

10-Day Weather Forecast

Almanac

Astronomy

Mar. 29, 2017 Rise Set
Actual Time
Civil Twilight
Nautical Twilight
Astronomical Twilight
Moon
Length of Visible Light
Length of Day
Tomorrow will be .
, % of the Moon is Illuminated

Today's Extremes

State Highs State Lows

Community

WunderPhotos

Upload Photos

1,962,540 photos uploaded!

WunderBlog® & News

Nearby

Air Quality

  Air Quality AQ Index Pollutant
Not available.

Snow Depth

Station Depth Elevation

Earthquake Activity

City Distance Mag. Time & Date
Minimum magnitude displayed is 2.5.

Earthquake Activity

City Distance Mag. Time & Date
Minimum magnitude displayed is 2.5.

Coastal Water Temperatures

Place Temperature

Stations

Nearby Weather Stations

Station Location Temp. Windchill Dew Point Humidity Wind Precip. Elev Updated Type
                   

Watches & Warnings

There are currently no watches in effect.